sensor_id;sensor_type;location;lat;lon;timestamp;P1;durP1;ratioP1;P2;durP2;ratioP2
17261;SDS011;9873;52.236;21.002;2022-10-31T00:01:42;7.63;;;4.80;;
17261;SDS011;9873;52.236;21.002;2022-10-31T00:11:46;7.00;;;4.78;;
17261;SDS011;9873;52.236;21.002;2022-10-31T00:21:51;9.40;;;5.72;;
17261;SDS011;9873;52.236;21.002;2022-10-31T00:31:58;7.88;;;5.65;;
17261;SDS011;9873;52.236;21.002;2022-10-31T00:42:03;9.05;;;5.40;;
17261;SDS011;9873;52.236;21.002;2022-10-31T00:52:05;9.38;;;5.60;;
17261;SDS011;9873;52.236;21.002;2022-10-31T01:02:13;10.15;;;6.70;;
17261;SDS011;9873;52.236;21.002;2022-10-31T01:12:18;11.93;;;7.18;;
17261;SDS011;9873;52.236;21.002;2022-10-31T01:22:23;10.45;;;7.90;;
17261;SDS011;9873;52.236;21.002;2022-10-31T01:32:27;13.43;;;8.37;;
17261;SDS011;9873;52.236;21.002;2022-10-31T01:42:35;13.90;;;9.33;;
17261;SDS011;9873;52.236;21.002;2022-10-31T01:52:45;16.37;;;10.50;;
17261;SDS011;9873;52.236;21.002;2022-10-31T02:02:49;17.60;;;11.60;;
17261;SDS011;9873;52.236;21.002;2022-10-31T02:12:56;18.13;;;12.13;;
17261;SDS011;9873;52.236;21.002;2022-10-31T02:33:51;20.83;;;13.50;;
17261;SDS011;9873;52.236;21.002;2022-10-31T02:54:17;23.27;;;15.73;;
17261;SDS011;9873;52.236;21.002;2022-10-31T03:14:56;22.33;;;15.73;;
17261;SDS011;9873;52.236;21.002;2022-10-31T03:25:18;22.20;;;14.30;;
17261;SDS011;9873;52.236;21.002;2022-10-31T03:35:25;19.63;;;12.90;;
17261;SDS011;9873;52.236;21.002;2022-10-31T03:45:31;19.03;;;12.73;;
17261;SDS011;9873;52.236;21.002;2022-10-31T04:05:41;20.80;;;14.27;;
17261;SDS011;9873;52.236;21.002;2022-10-31T04:15:45;23.17;;;14.97;;
17261;SDS011;9873;52.236;21.002;2022-10-31T04:25:52;19.57;;;12.90;;
17261;SDS011;9873;52.236;21.002;2022-10-31T04:35:57;23.30;;;13.63;;
17261;SDS011;9873;52.236;21.002;2022-10-31T04:46:02;18.77;;;11.50;;
17261;SDS011;9873;52.236;21.002;2022-10-31T04:56:10;20.40;;;12.50;;
17261;SDS011;9873;52.236;21.002;2022-10-31T05:06:16;21.47;;;13.93;;
17261;SDS011;9873;52.236;21.002;2022-10-31T05:16:20;19.67;;;13.47;;
17261;SDS011;9873;52.236;21.002;2022-10-31T05:26:45;18.33;;;12.20;;
17261;SDS011;9873;52.236;21.002;2022-10-31T05:36:47;17.83;;;11.77;;
17261;SDS011;9873;52.236;21.002;2022-10-31T05:46:52;18.87;;;10.33;;
17261;SDS011;9873;52.236;21.002;2022-10-31T05:57:17;18.97;;;11.50;;
17261;SDS011;9873;52.236;21.002;2022-10-31T06:07:21;22.57;;;15.43;;
17261;SDS011;9873;52.236;21.002;2022-10-31T06:17:26;27.13;;;17.83;;
17261;SDS011;9873;52.236;21.002;2022-10-31T06:27:54;26.57;;;17.83;;
17261;SDS011;9873;52.236;21.002;2022-10-31T06:38:05;23.30;;;16.23;;
17261;SDS011;9873;52.236;21.002;2022-10-31T06:48:15;31.07;;;18.63;;
17261;SDS011;9873;52.236;21.002;2022-10-31T06:58:37;25.13;;;15.87;;
17261;SDS011;9873;52.236;21.002;2022-10-31T07:08:42;22.50;;;13.73;;
17261;SDS011;9873;52.236;21.002;2022-10-31T07:18:49;24.23;;;14.27;;
17261;SDS011;9873;52.236;21.002;2022-10-31T07:28:52;25.20;;;15.10;;
17261;SDS011;9873;52.236;21.002;2022-10-31T07:38:57;25.20;;;14.93;;
17261;SDS011;9873;52.236;21.002;2022-10-31T07:49:04;31.43;;;18.13;;
17261;SDS011;9873;52.236;21.002;2022-10-31T07:59:44;28.13;;;17.97;;
17261;SDS011;9873;52.236;21.002;2022-10-31T08:09:48;26.37;;;16.93;;
17261;SDS011;9873;52.236;21.002;2022-10-31T08:19:54;26.60;;;15.40;;
17261;SDS011;9873;52.236;21.002;2022-10-31T08:30:05;23.57;;;14.13;;
17261;SDS011;9873;52.236;21.002;2022-10-31T08:40:11;25.10;;;14.93;;
17261;SDS011;9873;52.236;21.002;2022-10-31T08:50:18;21.83;;;14.03;;
17261;SDS011;9873;52.236;21.002;2022-10-31T09:00:23;24.25;;;15.40;;
17261;SDS011;9873;52.236;21.002;2022-10-31T09:10:35;24.67;;;16.52;;
17261;SDS011;9873;52.236;21.002;2022-10-31T09:20:39;26.00;;;16.30;;
17261;SDS011;9873;52.236;21.002;2022-10-31T09:30:42;23.17;;;14.88;;
17261;SDS011;9873;52.236;21.002;2022-10-31T09:51:10;29.95;;;18.67;;
17261;SDS011;9873;52.236;21.002;2022-10-31T10:12:12;33.83;;;21.53;;
17261;SDS011;9873;52.236;21.002;2022-10-31T10:32:50;34.67;;;22.92;;
17261;SDS011;9873;52.236;21.002;2022-10-31T10:43:21;32.23;;;21.37;;
17261;SDS011;9873;52.236;21.002;2022-10-31T11:14:21;27.95;;;16.75;;
17261;SDS011;9873;52.236;21.002;2022-10-31T11:24:39;26.77;;;17.38;;
17261;SDS011;9873;52.236;21.002;2022-10-31T11:34:44;21.83;;;14.85;;
17261;SDS011;9873;52.236;21.002;2022-10-31T11:44:50;23.73;;;15.18;;
17261;SDS011;9873;52.236;21.002;2022-10-31T12:35:33;25.73;;;16.20;;
17261;SDS011;9873;52.236;21.002;2022-10-31T12:45:55;23.27;;;15.60;;
17261;SDS011;9873;52.236;21.002;2022-10-31T12:56:18;24.45;;;15.85;;
17261;SDS011;9873;52.236;21.002;2022-10-31T13:06:36;24.75;;;17.10;;
17261;SDS011;9873;52.236;21.002;2022-10-31T13:16:46;30.25;;;18.73;;
17261;SDS011;9873;52.236;21.002;2022-10-31T13:26:54;27.95;;;18.92;;
17261;SDS011;9873;52.236;21.002;2022-10-31T13:47:43;31.17;;;19.80;;
17261;SDS011;9873;52.236;21.002;2022-10-31T13:57:59;31.58;;;21.02;;
17261;SDS011;9873;52.236;21.002;2022-10-31T14:08:16;33.55;;;21.00;;
17261;SDS011;9873;52.236;21.002;2022-10-31T14:18:25;29.38;;;19.58;;
17261;SDS011;9873;52.236;21.002;2022-10-31T14:28:33;30.23;;;20.20;;
17261;SDS011;9873;52.236;21.002;2022-10-31T14:38:58;33.03;;;20.58;;
17261;SDS011;9873;52.236;21.002;2022-10-31T14:49:34;34.55;;;20.05;;
17261;SDS011;9873;52.236;21.002;2022-10-31T15:00:15;32.97;;;20.20;;
17261;SDS011;9873;52.236;21.002;2022-10-31T15:20:42;42.03;;;21.58;;
17261;SDS011;9873;52.236;21.002;2022-10-31T15:30:55;47.03;;;22.85;;
17261;SDS011;9873;52.236;21.002;2022-10-31T15:41:06;48.38;;;23.98;;
17261;SDS011;9873;52.236;21.002;2022-10-31T15:51:32;52.85;;;24.30;;
17261;SDS011;9873;52.236;21.002;2022-10-31T16:01:36;51.05;;;24.70;;
17261;SDS011;9873;52.236;21.002;2022-10-31T16:11:38;55.78;;;26.83;;
17261;SDS011;9873;52.236;21.002;2022-10-31T16:21:44;56.83;;;27.50;;
17261;SDS011;9873;52.236;21.002;2022-10-31T16:31:48;59.15;;;27.10;;
17261;SDS011;9873;52.236;21.002;2022-10-31T16:41:54;55.00;;;26.70;;
17261;SDS011;9873;52.236;21.002;2022-10-31T16:51:59;60.60;;;28.65;;
17261;SDS011;9873;52.236;21.002;2022-10-31T17:02:02;70.47;;;27.58;;
17261;SDS011;9873;52.236;21.002;2022-10-31T17:12:12;77.68;;;30.60;;
17261;SDS011;9873;52.236;21.002;2022-10-31T17:22:17;134.23;;;34.75;;
17261;SDS011;9873;52.236;21.002;2022-10-31T17:32:21;129.50;;;35.00;;
17261;SDS011;9873;52.236;21.002;2022-10-31T17:42:26;204.60;;;39.55;;
17261;SDS011;9873;52.236;21.002;2022-10-31T17:52:30;181.37;;;39.63;;
17261;SDS011;9873;52.236;21.002;2022-10-31T18:02:33;120.18;;;33.53;;
17261;SDS011;9873;52.236;21.002;2022-10-31T18:12:36;164.73;;;32.75;;
17261;SDS011;9873;52.236;21.002;2022-10-31T18:22:42;375.02;;;46.72;;
17261;SDS011;9873;52.236;21.002;2022-10-31T18:32:54;154.10;;;32.33;;
17261;SDS011;9873;52.236;21.002;2022-10-31T18:42:59;170.43;;;30.98;;
17261;SDS011;9873;52.236;21.002;2022-10-31T18:53:01;109.63;;;28.20;;
17261;SDS011;9873;52.236;21.002;2022-10-31T19:03:07;116.63;;;26.13;;
17261;SDS011;9873;52.236;21.002;2022-10-31T19:13:14;117.97;;;25.03;;
17261;SDS011;9873;52.236;21.002;2022-10-31T19:23:20;99.28;;;24.25;;
17261;SDS011;9873;52.236;21.002;2022-10-31T19:33:22;80.72;;;24.75;;
17261;SDS011;9873;52.236;21.002;2022-10-31T19:43:36;82.25;;;24.55;;
17261;SDS011;9873;52.236;21.002;2022-10-31T19:53:41;89.57;;;25.35;;
17261;SDS011;9873;52.236;21.002;2022-10-31T20:03:46;92.00;;;26.15;;
17261;SDS011;9873;52.236;21.002;2022-10-31T20:13:58;66.47;;;26.92;;
17261;SDS011;9873;52.236;21.002;2022-10-31T20:24:05;85.03;;;27.75;;
17261;SDS011;9873;52.236;21.002;2022-10-31T20:34:12;80.35;;;26.83;;
17261;SDS011;9873;52.236;21.002;2022-10-31T20:44:15;69.18;;;25.40;;
17261;SDS011;9873;52.236;21.002;2022-10-31T20:54:17;62.08;;;26.60;;
17261;SDS011;9873;52.236;21.002;2022-10-31T21:04:22;61.35;;;24.80;;
17261;SDS011;9873;52.236;21.002;2022-10-31T21:14:24;66.13;;;26.42;;
17261;SDS011;9873;52.236;21.002;2022-10-31T21:24:26;81.03;;;26.90;;
17261;SDS011;9873;52.236;21.002;2022-10-31T21:34:29;68.90;;;26.13;;
17261;SDS011;9873;52.236;21.002;2022-10-31T21:44:36;90.78;;;27.95;;
17261;SDS011;9873;52.236;21.002;2022-10-31T21:54:40;85.25;;;27.50;;
17261;SDS011;9873;52.236;21.002;2022-10-31T22:04:45;84.03;;;29.10;;
17261;SDS011;9873;52.236;21.002;2022-10-31T22:14:51;73.53;;;26.48;;
17261;SDS011;9873;52.236;21.002;2022-10-31T22:24:56;67.70;;;25.58;;
17261;SDS011;9873;52.236;21.002;2022-10-31T22:35:03;72.88;;;26.08;;
17261;SDS011;9873;52.236;21.002;2022-10-31T22:45:10;96.68;;;25.90;;
17261;SDS011;9873;52.236;21.002;2022-10-31T22:55:15;96.60;;;24.73;;
17261;SDS011;9873;52.236;21.002;2022-10-31T23:05:17;182.13;;;26.10;;
17261;SDS011;9873;52.236;21.002;2022-10-31T23:15:19;131.20;;;30.38;;
17261;SDS011;9873;52.236;21.002;2022-10-31T23:25:25;235.27;;;31.08;;
17261;SDS011;9873;52.236;21.002;2022-10-31T23:35:50;460.07;;;42.53;;
17261;SDS011;9873;52.236;21.002;2022-10-31T23:45:52;119.47;;;23.25;;
17261;SDS011;9873;52.236;21.002;2022-10-31T23:55:59;127.10;;;24.27;;
